createdAt,value
2022-12-17T00:00:52.554Z,12.23
2022-12-17T00:02:43.268Z,12.20
2022-12-17T00:04:35.236Z,12.63
2022-12-17T00:06:25.752Z,13.00
2022-12-17T00:08:16.605Z,11.37
2022-12-17T00:10:07.082Z,13.07
2022-12-17T00:11:57.426Z,12.23
2022-12-17T00:13:57.440Z,13.67
2022-12-17T00:15:47.950Z,13.07
2022-12-17T00:17:41.243Z,13.17
2022-12-17T00:19:46.289Z,12.33
2022-12-17T00:21:38.230Z,13.63
2022-12-17T00:23:28.881Z,12.63
2022-12-17T00:25:19.696Z,13.50
2022-12-17T00:27:10.314Z,12.70
2022-12-17T00:29:00.733Z,13.33
2022-12-17T00:30:51.170Z,13.13
2022-12-17T00:32:42.628Z,13.03
2022-12-17T00:34:33.624Z,13.47
2022-12-17T00:36:24.556Z,12.70
2022-12-17T00:38:16.677Z,13.03
2022-12-17T00:40:07.077Z,13.30
2022-12-17T00:41:57.724Z,13.63
2022-12-17T00:43:48.173Z,12.83
2022-12-17T00:45:38.762Z,14.00
2022-12-17T00:47:41.165Z,12.57
2022-12-17T00:49:31.922Z,11.93
2022-12-17T00:51:22.821Z,13.10
2022-12-17T00:53:13.429Z,12.30
2022-12-17T00:55:05.028Z,11.47
2022-12-17T00:56:56.271Z,12.73
2022-12-17T00:58:46.482Z,12.80
2022-12-17T01:00:37.472Z,12.57
2022-12-17T01:02:28.180Z,12.77
2022-12-17T01:04:18.477Z,12.60
2022-12-17T01:06:09.054Z,11.47
2022-12-17T01:08:00.587Z,12.70
2022-12-17T01:09:51.142Z,12.77
2022-12-17T01:11:43.031Z,11.10
2022-12-17T01:13:33.899Z,11.47
2022-12-17T01:15:25.344Z,11.67
2022-12-17T01:17:15.753Z,12.20
2022-12-17T01:19:06.354Z,11.40
2022-12-17T01:21:11.446Z,11.23
2022-12-17T01:23:02.079Z,11.67
2022-12-17T01:24:54.953Z,12.30
2022-12-17T01:26:47.820Z,11.85
2022-12-17T01:28:41.177Z,12.57
2022-12-17T01:30:31.579Z,11.87
2022-12-17T01:32:22.090Z,9.57
2022-12-17T01:34:12.485Z,11.20
2022-12-17T01:36:03.014Z,11.27
2022-12-17T01:37:53.506Z,11.50
2022-12-17T01:39:44.503Z,10.57
2022-12-17T01:41:38.350Z,11.37
2022-12-17T01:43:31.426Z,10.57
2022-12-17T01:45:22.434Z,11.00
2022-12-17T01:47:13.340Z,10.83
2022-12-17T01:49:06.550Z,11.20
2022-12-17T01:50:59.834Z,9.40
2022-12-17T01:52:50.264Z,12.13
2022-12-17T01:54:41.142Z,9.97
2022-12-17T01:56:32.064Z,9.97
2022-12-17T01:58:22.460Z,11.07
2022-12-17T02:00:17.862Z,9.87
2022-12-17T02:02:08.562Z,8.47
2022-12-17T02:03:59.577Z,10.47
2022-12-17T02:05:59.253Z,11.13
2022-12-17T02:08:04.465Z,11.97
2022-12-17T02:10:01.156Z,9.47
2022-12-17T02:11:58.508Z,9.07
2022-12-17T02:13:51.612Z,9.03
2022-12-17T02:15:49.593Z,10.50
2022-12-17T02:17:43.619Z,9.63
2022-12-17T02:19:45.477Z,10.40
2022-12-17T02:21:37.986Z,9.17
2022-12-17T02:23:40.494Z,10.00
2022-12-17T02:25:40.487Z,10.00
2022-12-17T02:27:33.597Z,9.70
2022-12-17T02:29:27.115Z,9.20
2022-12-17T02:31:29.640Z,9.68
2022-12-17T02:33:21.236Z,9.73
2022-12-17T02:35:12.373Z,8.73
2022-12-17T02:37:02.734Z,9.67
2022-12-17T02:39:07.810Z,10.97
2022-12-17T02:40:59.011Z,9.90
2022-12-17T02:42:51.220Z,8.67
2022-12-17T02:44:42.839Z,10.57
2022-12-17T02:46:33.761Z,10.80
2022-12-17T02:48:25.943Z,10.30
2022-12-17T02:50:16.174Z,9.87
2022-12-17T02:52:07.258Z,11.27
2022-12-17T02:54:02.892Z,10.30
2022-12-17T02:55:54.801Z,10.20
2022-12-17T02:57:48.475Z,10.73
2022-12-17T02:59:43.982Z,10.10
2022-12-17T03:01:34.544Z,10.60
2022-12-17T03:03:25.533Z,11.27
2022-12-17T03:05:43.547Z,10.17
2022-12-17T03:07:25.947Z,10.10
2022-12-17T03:09:16.536Z,10.53
2022-12-17T03:11:06.981Z,10.13
2022-12-17T03:12:57.754Z,10.17
2022-12-17T03:14:49.657Z,10.00
2022-12-17T03:16:40.312Z,9.53
2022-12-17T03:18:30.950Z,10.90
2022-12-17T03:20:21.853Z,10.87
2022-12-17T03:22:12.684Z,10.17
2022-12-17T03:24:03.141Z,9.27
2022-12-17T03:25:54.130Z,10.80
2022-12-17T03:27:44.573Z,9.53
2022-12-17T03:29:35.225Z,11.03
2022-12-17T03:31:27.223Z,9.30
2022-12-17T03:33:17.638Z,10.23
2022-12-17T03:35:08.178Z,10.80
2022-12-17T03:36:59.333Z,11.13
2022-12-17T03:38:49.903Z,10.60
2022-12-17T03:40:40.365Z,10.73
2022-12-17T03:42:31.246Z,9.40
2022-12-17T03:44:21.601Z,10.40
2022-12-17T03:46:12.572Z,10.33
2022-12-17T03:48:04.415Z,11.67
2022-12-17T03:49:55.461Z,11.53
2022-12-17T03:51:46.103Z,11.73
2022-12-17T03:53:36.716Z,10.60
2022-12-17T03:55:27.768Z,12.03
2022-12-17T03:57:18.174Z,10.67
2022-12-17T03:59:08.852Z,11.17
2022-12-17T04:00:59.442Z,11.13
2022-12-17T04:02:49.937Z,11.23
2022-12-17T04:04:41.634Z,11.03
2022-12-17T04:06:32.098Z,12.10
2022-12-17T04:08:34.517Z,10.50
2022-12-17T04:10:25.078Z,11.70
2022-12-17T04:12:16.033Z,11.23
2022-12-17T04:14:06.537Z,10.30
2022-12-17T04:15:57.669Z,10.33
2022-12-17T04:17:47.965Z,10.43
2022-12-17T04:19:38.540Z,11.33
2022-12-17T04:21:30.465Z,11.60
2022-12-17T04:23:21.058Z,11.83
2022-12-17T04:25:11.493Z,10.33
2022-12-17T04:27:02.133Z,11.10
2022-12-17T04:28:52.700Z,11.63
2022-12-17T04:30:43.714Z,11.07
2022-12-17T04:32:35.499Z,10.73
2022-12-17T04:34:26.901Z,11.17
2022-12-17T04:36:17.442Z,10.77
2022-12-17T04:38:09.031Z,10.83
2022-12-17T04:39:59.590Z,11.70
2022-12-17T04:41:51.015Z,10.60
2022-12-17T04:43:41.490Z,11.57
2022-12-17T04:45:32.372Z,10.67
2022-12-17T04:47:22.929Z,10.57
2022-12-17T04:49:13.917Z,11.43
2022-12-17T04:51:04.342Z,11.67
2022-12-17T04:52:55.489Z,11.00
2022-12-17T04:54:47.413Z,10.83
2022-12-17T04:56:38.597Z,11.00
2022-12-17T04:58:29.037Z,11.43
2022-12-17T05:00:19.619Z,10.40
2022-12-17T05:02:10.326Z,11.10
2022-12-17T05:04:06.471Z,11.20
2022-12-17T05:05:57.094Z,10.63
2022-12-17T05:07:47.666Z,11.13
2022-12-17T05:09:38.935Z,11.13
2022-12-17T05:11:30.799Z,11.40
2022-12-17T05:13:24.157Z,11.87
2022-12-17T05:15:14.611Z,11.10
2022-12-17T05:17:05.203Z,9.47
2022-12-17T05:18:55.731Z,11.97
2022-12-17T05:20:46.689Z,10.73
2022-12-17T05:22:37.307Z,11.40
2022-12-17T05:24:28.013Z,11.70
2022-12-17T05:26:22.958Z,11.67
2022-12-17T05:28:14.704Z,11.67
2022-12-17T05:30:05.193Z,11.93
2022-12-17T05:31:56.149Z,11.57
2022-12-17T05:33:46.936Z,11.47
2022-12-17T05:35:37.531Z,10.70
2022-12-17T05:37:28.049Z,10.53
2022-12-17T05:39:18.966Z,11.07
2022-12-17T05:41:09.466Z,12.17
2022-12-17T05:42:59.926Z,11.17
2022-12-17T05:44:51.852Z,12.97
2022-12-17T05:46:42.473Z,13.20
2022-12-17T05:48:32.878Z,11.33
2022-12-17T05:50:38.621Z,11.73
2022-12-17T05:52:29.245Z,11.93
2022-12-17T05:54:19.321Z,11.50
2022-12-17T05:56:10.086Z,12.10
2022-12-17T05:58:00.653Z,12.97
2022-12-17T05:59:52.538Z,11.70
2022-12-17T06:01:43.221Z,10.37
2022-12-17T06:03:33.873Z,11.37
2022-12-17T06:05:25.172Z,13.37
2022-12-17T06:07:15.757Z,11.47
2022-12-17T06:09:06.142Z,11.43
2022-12-17T06:10:56.532Z,11.23
2022-12-17T06:12:52.778Z,12.37
2022-12-17T06:14:43.421Z,11.77
2022-12-17T06:16:35.354Z,11.97
2022-12-17T06:18:27.217Z,11.87
2022-12-17T06:20:17.731Z,11.43
2022-12-17T06:22:13.446Z,12.30
2022-12-17T06:24:15.566Z,11.50
2022-12-17T06:26:06.356Z,11.33
2022-12-17T06:27:57.354Z,11.23
2022-12-17T06:29:47.901Z,11.83
2022-12-17T06:31:39.783Z,11.60
2022-12-17T06:33:30.684Z,12.00
2022-12-17T06:35:21.287Z,10.97
2022-12-17T06:37:11.895Z,10.63
2022-12-17T06:39:02.345Z,12.60
2022-12-17T06:40:52.787Z,11.07
2022-12-17T06:42:43.275Z,10.27
2022-12-17T06:44:48.646Z,10.37
2022-12-17T06:46:38.968Z,11.47
2022-12-17T06:48:30.010Z,11.00
2022-12-17T06:50:20.528Z,12.30
2022-12-17T06:52:10.954Z,11.83
2022-12-17T06:54:02.000Z,11.30
2022-12-17T06:55:53.556Z,10.80
2022-12-17T06:57:47.497Z,10.53
2022-12-17T06:59:40.555Z,10.13
2022-12-17T07:01:32.382Z,10.77
2022-12-17T07:03:23.127Z,11.13
2022-12-17T07:05:13.915Z,11.40
2022-12-17T07:07:04.462Z,12.03
2022-12-17T07:08:55.385Z,11.03
2022-12-17T07:10:47.391Z,11.17
2022-12-17T07:12:37.958Z,11.13
2022-12-17T07:14:28.503Z,11.30
2022-12-17T07:16:18.955Z,11.07
2022-12-17T07:18:17.944Z,11.13
2022-12-17T07:20:09.048Z,11.40
2022-12-17T07:21:59.549Z,10.90
2022-12-17T07:23:50.653Z,11.80
2022-12-17T07:25:45.812Z,13.43
2022-12-17T07:27:39.032Z,12.53
2022-12-17T07:29:29.456Z,12.80
2022-12-17T07:31:20.090Z,12.73
2022-12-17T07:33:18.496Z,12.57
2022-12-17T07:35:08.984Z,12.43
2022-12-17T07:36:59.498Z,12.30
2022-12-17T07:38:50.375Z,12.40
2022-12-17T07:40:41.477Z,13.17
2022-12-17T07:42:32.064Z,12.10
2022-12-17T07:44:22.928Z,12.83
2022-12-17T07:46:13.545Z,12.90
2022-12-17T07:48:11.220Z,10.77
2022-12-17T07:50:02.940Z,12.07
2022-12-17T07:51:49.724Z,10.90
2022-12-17T07:53:46.238Z,11.17
2022-12-17T07:55:36.939Z,11.43
2022-12-17T07:57:27.421Z,10.97
2022-12-17T07:59:17.912Z,11.57
2022-12-17T08:01:08.471Z,11.33
2022-12-17T08:02:58.882Z,13.10
2022-12-17T08:04:49.249Z,10.30
2022-12-17T08:06:58.351Z,12.23
2022-12-17T08:08:51.258Z,11.43
2022-12-17T08:10:41.899Z,12.70
2022-12-17T08:12:32.475Z,11.50
2022-12-17T08:14:23.403Z,12.50
2022-12-17T08:16:14.534Z,12.03
2022-12-17T08:18:05.231Z,11.93
2022-12-17T08:19:55.801Z,12.27
2022-12-17T08:21:47.581Z,11.13
2022-12-17T08:23:38.489Z,12.73
2022-12-17T08:25:29.440Z,12.37
2022-12-17T08:27:20.130Z,12.10
2022-12-17T08:29:10.742Z,12.27
2022-12-17T08:31:01.890Z,10.97
2022-12-17T08:33:00.930Z,12.53
2022-12-17T08:34:51.548Z,12.23
2022-12-17T08:36:42.345Z,11.93
2022-12-17T08:38:34.152Z,12.37
2022-12-17T08:40:25.407Z,11.70
2022-12-17T08:42:16.086Z,11.37
2022-12-17T08:44:06.275Z,12.90
2022-12-17T08:45:57.066Z,11.80
2022-12-17T08:47:47.475Z,11.77
2022-12-17T08:49:38.518Z,11.20
2022-12-17T08:51:29.055Z,10.83
2022-12-17T08:53:21.645Z,11.43
2022-12-17T08:55:13.274Z,12.13
2022-12-17T08:57:03.805Z,12.43
2022-12-17T08:58:58.813Z,11.07
2022-12-17T09:00:50.309Z,12.47
2022-12-17T09:02:41.567Z,11.67
2022-12-17T09:04:32.187Z,11.80
2022-12-17T09:06:23.066Z,11.33
2022-12-17T09:08:18.316Z,11.63
2022-12-17T09:10:09.278Z,12.10
2022-12-17T09:12:01.470Z,12.23
2022-12-17T09:13:52.207Z,12.00
2022-12-17T09:15:42.928Z,12.57
2022-12-17T09:17:33.419Z,12.27
2022-12-17T09:19:24.606Z,11.30
2022-12-17T09:21:15.016Z,11.07
2022-12-17T09:23:05.617Z,11.10
2022-12-17T09:24:56.213Z,12.33
2022-12-17T09:26:46.771Z,11.93
2022-12-17T09:28:38.346Z,11.70
2022-12-17T09:30:29.922Z,11.90
2022-12-17T09:32:20.197Z,11.90
2022-12-17T09:34:10.722Z,11.83
2022-12-17T09:36:01.366Z,11.37
2022-12-17T09:37:52.598Z,12.03
2022-12-17T09:39:43.217Z,12.27
2022-12-17T09:41:43.631Z,12.37
2022-12-17T09:43:47.070Z,12.60
2022-12-17T09:45:42.143Z,12.00
2022-12-17T09:47:48.134Z,14.20
2022-12-17T09:49:41.161Z,12.77
2022-12-17T09:51:40.789Z,13.30
2022-12-17T09:53:40.305Z,13.37
2022-12-17T09:55:49.841Z,13.87
2022-12-17T09:57:44.592Z,13.67
2022-12-17T09:59:39.539Z,12.33
2022-12-17T10:01:35.494Z,11.77
2022-12-17T10:03:30.780Z,11.30
2022-12-17T10:05:23.690Z,12.97
2022-12-17T10:07:14.222Z,12.20
2022-12-17T10:09:05.770Z,11.77
2022-12-17T10:11:02.806Z,12.67
2022-12-17T10:12:53.849Z,12.50
2022-12-17T10:14:45.968Z,13.43
2022-12-17T10:16:44.594Z,14.13
2022-12-17T10:18:36.158Z,12.60
2022-12-17T10:20:36.738Z,13.73
2022-12-17T10:22:29.203Z,12.97
2022-12-17T10:24:27.178Z,13.40
2022-12-17T10:26:17.555Z,13.00
2022-12-17T10:28:08.591Z,12.93
2022-12-17T10:30:02.183Z,13.57
2022-12-17T10:31:52.571Z,13.40
2022-12-17T10:33:43.035Z,13.30
2022-12-17T10:35:50.166Z,14.47
2022-12-17T10:37:41.022Z,13.40
2022-12-17T10:39:35.523Z,13.47
2022-12-17T10:41:41.286Z,13.83
2022-12-17T10:43:43.076Z,13.63
2022-12-17T10:45:43.382Z,12.47
2022-12-17T10:47:35.838Z,13.23
2022-12-17T10:49:31.370Z,13.77
2022-12-17T10:51:22.269Z,12.50
2022-12-17T10:53:12.682Z,13.63
2022-12-17T10:55:13.353Z,13.93
2022-12-17T10:57:11.299Z,13.63
2022-12-17T10:59:04.298Z,12.97
2022-12-17T11:00:58.824Z,14.07
2022-12-17T11:02:57.780Z,14.23
2022-12-17T11:04:50.491Z,14.67
2022-12-17T11:06:45.425Z,14.37
2022-12-17T11:08:37.355Z,14.07
2022-12-17T11:10:35.584Z,15.03
2022-12-17T11:12:31.187Z,14.80
2022-12-17T11:14:24.373Z,14.90
2022-12-17T11:16:18.683Z,14.80
2022-12-17T11:20:07.024Z,13.80
2022-12-17T11:22:04.597Z,14.60
2022-12-17T11:24:00.172Z,14.63
2022-12-17T11:25:57.823Z,15.30
2022-12-17T11:27:54.441Z,15.20
2022-12-17T11:29:45.559Z,14.90
2022-12-17T11:31:58.186Z,15.23
2022-12-17T11:33:58.160Z,15.47
2022-12-17T11:35:53.907Z,15.73
2022-12-17T11:37:49.831Z,16.03
2022-12-17T11:39:57.314Z,14.87
2022-12-17T11:41:57.486Z,16.30
2022-12-17T11:43:56.640Z,15.33
2022-12-17T11:45:53.041Z,14.60
2022-12-17T11:47:58.900Z,14.37
2022-12-17T11:49:58.912Z,14.10
2022-12-17T11:51:57.887Z,15.00
2022-12-17T11:54:05.097Z,16.03
2022-12-17T11:56:11.961Z,15.77
2022-12-17T11:58:11.055Z,15.70
2022-12-17T12:00:07.745Z,14.23
2022-12-17T12:02:04.354Z,15.70
2022-12-17T12:04:07.206Z,15.90
2022-12-17T12:06:05.444Z,15.33
2022-12-17T12:08:01.370Z,16.10
2022-12-17T12:10:00.544Z,15.87
2022-12-17T12:11:58.124Z,14.97
2022-12-17T12:13:57.290Z,15.97
2022-12-17T12:15:58.123Z,15.40
2022-12-17T12:18:02.517Z,17.37
2022-12-17T12:20:02.067Z,16.40
2022-12-17T12:21:58.832Z,16.40
2022-12-17T12:23:59.139Z,16.73
2022-12-17T12:25:54.540Z,15.93
2022-12-17T12:27:53.680Z,16.53
2022-12-17T12:29:52.312Z,16.33
2022-12-17T12:31:51.607Z,17.67
2022-12-17T12:33:50.313Z,17.10
2022-12-17T12:35:45.848Z,17.43
2022-12-17T12:37:39.312Z,16.23
2022-12-17T12:39:32.231Z,17.63
2022-12-17T12:41:30.933Z,17.43
2022-12-17T12:43:29.436Z,17.17
2022-12-17T12:45:25.614Z,17.23
2022-12-17T12:47:20.304Z,17.23
2022-12-17T12:49:17.348Z,18.13
2022-12-17T12:51:16.011Z,18.03
2022-12-17T12:53:07.126Z,18.40
2022-12-17T12:55:10.856Z,16.60
2022-12-17T12:57:03.529Z,18.03
2022-12-17T12:58:54.681Z,18.47
2022-12-17T13:00:54.055Z,17.90
2022-12-17T13:02:47.802Z,17.67
2022-12-17T13:04:49.673Z,18.10
2022-12-17T13:06:46.340Z,17.13
2022-12-17T13:08:23.274Z,17.43
2022-12-17T13:09:57.935Z,18.03
2022-12-17T13:11:38.924Z,18.97
2022-12-17T13:13:18.462Z,18.27
2022-12-17T13:14:56.940Z,18.17
2022-12-17T13:16:34.825Z,18.20
2022-12-17T13:18:20.573Z,18.33
2022-12-17T13:20:02.065Z,17.30
2022-12-17T13:21:35.946Z,16.90
2022-12-17T13:23:27.439Z,17.80
2022-12-17T13:25:18.537Z,16.13
2022-12-17T13:26:51.853Z,16.73
2022-12-17T13:28:30.728Z,16.05
2022-12-17T13:30:21.370Z,16.33
2022-12-17T13:32:16.869Z,16.23
2022-12-17T13:33:57.932Z,16.90
2022-12-17T13:35:38.122Z,16.97
2022-12-17T13:37:20.947Z,17.53
2022-12-17T13:39:03.524Z,17.52
2022-12-17T13:40:45.193Z,16.83
2022-12-17T13:42:21.176Z,17.07
2022-12-17T13:43:56.959Z,16.63
2022-12-17T13:45:33.796Z,16.57
2022-12-17T13:47:07.478Z,17.10
2022-12-17T13:48:41.554Z,17.67
2022-12-17T13:50:33.788Z,16.73
2022-12-17T13:52:17.549Z,16.67
2022-12-17T13:53:56.446Z,17.25
2022-12-17T13:55:30.643Z,15.97
2022-12-17T13:57:11.018Z,15.35
2022-12-17T13:58:44.220Z,16.13
2022-12-17T14:00:23.756Z,16.42
2022-12-17T14:01:56.707Z,16.30
2022-12-17T14:03:43.391Z,16.30
2022-12-17T14:05:28.624Z,16.70
2022-12-17T14:07:06.262Z,16.53
2022-12-17T14:08:40.686Z,16.13
2022-12-17T14:10:19.016Z,16.90
2022-12-17T14:12:09.941Z,16.90
2022-12-17T14:13:43.285Z,17.10
2022-12-17T14:15:24.474Z,16.98
2022-12-17T14:16:57.747Z,15.87
2022-12-17T14:18:30.738Z,18.27
2022-12-17T14:20:08.419Z,18.83
2022-12-17T14:21:41.561Z,19.00
2022-12-17T14:23:22.908Z,17.63
2022-12-17T14:24:55.982Z,17.43
2022-12-17T14:26:30.379Z,17.38
2022-12-17T14:28:05.126Z,17.07
2022-12-17T14:29:47.520Z,16.10
2022-12-17T14:31:28.220Z,16.60
2022-12-17T14:33:01.709Z,16.80
2022-12-17T14:34:42.466Z,17.05
2022-12-17T14:36:22.157Z,18.03
2022-12-17T14:37:55.500Z,15.93
2022-12-17T14:39:32.287Z,16.83
2022-12-17T14:41:30.760Z,17.00
2022-12-17T14:43:04.354Z,16.40
2022-12-17T14:44:42.797Z,16.60
2022-12-17T14:46:22.539Z,15.53
2022-12-17T14:47:58.299Z,16.50
2022-12-17T14:49:31.225Z,16.53
2022-12-17T14:51:04.241Z,16.65
2022-12-17T14:52:43.249Z,16.70
2022-12-17T14:54:20.844Z,16.70
2022-12-17T14:55:56.258Z,16.20
2022-12-17T14:57:29.242Z,17.07
2022-12-17T14:59:03.451Z,16.50
2022-12-17T15:00:38.282Z,17.33
2022-12-17T15:02:26.204Z,17.07
2022-12-17T15:03:59.466Z,17.83
2022-12-17T15:05:32.666Z,18.95
2022-12-17T15:07:10.847Z,17.27
2022-12-17T15:08:47.569Z,16.83
2022-12-17T15:10:21.778Z,17.93
2022-12-17T15:11:54.842Z,17.07
2022-12-17T15:13:27.758Z,17.55
2022-12-17T15:15:02.132Z,17.80
2022-12-17T15:16:35.123Z,17.57
2022-12-17T15:18:08.116Z,17.10
2022-12-17T15:19:41.068Z,18.73
2022-12-17T15:21:14.556Z,18.38
2022-12-17T15:22:47.999Z,18.13
2022-12-17T15:25:55.727Z,17.60
2022-12-17T15:27:28.730Z,18.57
2022-12-17T15:29:02.440Z,20.40
2022-12-17T15:30:36.766Z,21.73
2022-12-17T15:32:12.904Z,21.90
2022-12-17T15:33:45.809Z,20.57
2022-12-17T15:35:18.774Z,21.33
2022-12-17T15:36:51.682Z,19.17
2022-12-17T15:38:24.631Z,22.33
2022-12-17T15:39:57.520Z,18.35
2022-12-17T15:41:47.709Z,20.13
2022-12-17T15:43:20.817Z,18.67
2022-12-17T15:44:54.293Z,20.35
2022-12-17T15:46:30.000Z,21.20
2022-12-17T15:48:03.789Z,21.07
2022-12-17T15:49:36.748Z,21.23
2022-12-17T15:51:11.143Z,20.42
2022-12-17T15:52:45.845Z,21.13
2022-12-17T15:54:18.767Z,20.55
2022-12-17T15:55:51.798Z,20.95
2022-12-17T15:57:25.081Z,19.67
2022-12-17T15:58:58.571Z,20.10
2022-12-17T16:00:31.445Z,19.97
2022-12-17T16:02:06.000Z,21.42
2022-12-17T16:03:39.090Z,20.00
2022-12-17T16:05:12.471Z,20.75
2022-12-17T16:08:19.119Z,18.30
2022-12-17T16:09:52.186Z,18.93
2022-12-17T16:11:25.171Z,20.67
2022-12-17T16:12:58.148Z,20.58
2022-12-17T16:14:31.224Z,19.50
2022-12-17T16:16:04.807Z,20.35
2022-12-17T16:17:39.240Z,19.53
2022-12-17T16:19:12.118Z,20.60
2022-12-17T16:20:45.101Z,20.65
2022-12-17T16:22:18.075Z,20.20
2022-12-17T16:23:51.060Z,20.58
2022-12-17T16:25:24.022Z,22.30
2022-12-17T16:27:02.466Z,21.10
2022-12-17T16:28:38.605Z,21.30
2022-12-17T16:30:13.246Z,21.30
2022-12-17T16:31:46.545Z,21.77
2022-12-17T16:33:20.929Z,21.85
2022-12-17T16:34:53.849Z,20.83
2022-12-17T16:36:26.766Z,20.95
2022-12-17T16:37:59.799Z,21.95
2022-12-17T16:39:33.213Z,22.25
2022-12-17T16:42:44.261Z,21.03
2022-12-17T16:44:17.095Z,21.53
2022-12-17T16:45:51.755Z,23.02
2022-12-17T16:47:26.101Z,22.53
2022-12-17T16:49:05.456Z,23.17
2022-12-17T16:50:38.322Z,23.90
2022-12-17T16:52:11.251Z,24.23
2022-12-17T16:53:45.216Z,24.40
2022-12-17T16:55:18.294Z,23.93
2022-12-17T16:56:51.559Z,23.10
2022-12-17T16:58:24.464Z,22.55
2022-12-17T16:59:57.380Z,21.95
2022-12-17T17:01:30.763Z,23.00
2022-12-17T17:04:39.232Z,22.10
2022-12-17T17:06:12.115Z,22.30
2022-12-17T17:07:44.972Z,23.83
2022-12-17T17:09:19.497Z,21.58
2022-12-17T17:10:52.379Z,23.87
2022-12-17T17:12:26.438Z,22.88
2022-12-17T17:13:59.328Z,24.00
2022-12-17T17:15:32.501Z,24.27
2022-12-17T17:17:05.337Z,23.65
2022-12-17T17:18:38.977Z,25.13
2022-12-17T17:20:14.082Z,24.87
2022-12-17T17:21:51.780Z,24.73
2022-12-17T17:23:24.721Z,24.97
2022-12-17T17:24:57.629Z,25.13
2022-12-17T17:26:33.297Z,24.73
2022-12-17T17:28:06.172Z,26.77
2022-12-17T17:29:39.129Z,26.63
2022-12-17T17:31:12.742Z,26.27
2022-12-17T17:32:45.822Z,25.67
2022-12-17T17:34:18.836Z,26.40
2022-12-17T17:35:54.210Z,25.63
2022-12-17T17:37:27.891Z,26.43
2022-12-17T17:39:02.396Z,27.83
2022-12-17T17:40:35.245Z,24.63
2022-12-17T17:42:08.147Z,26.38
2022-12-17T17:43:41.250Z,25.73
2022-12-17T17:45:14.165Z,27.48
2022-12-17T17:46:47.131Z,27.77
2022-12-17T17:48:20.502Z,27.25
2022-12-17T17:51:59.915Z,24.00
2022-12-17T17:53:22.437Z,25.40
2022-12-17T17:54:55.311Z,24.67
2022-12-17T17:56:30.348Z,25.02
2022-12-17T17:58:03.238Z,24.93
2022-12-17T17:59:36.079Z,26.98
2022-12-17T18:01:10.125Z,25.38
2022-12-17T18:02:43.301Z,24.50
2022-12-17T18:04:18.630Z,24.38
2022-12-17T18:05:51.603Z,25.67
2022-12-17T18:07:26.925Z,26.08
2022-12-17T18:09:00.893Z,25.40
2022-12-17T18:12:21.076Z,23.53
2022-12-17T18:13:56.765Z,25.50
2022-12-17T18:15:28.743Z,25.27
2022-12-17T18:17:01.673Z,24.77
2022-12-17T18:18:34.686Z,26.55
2022-12-17T18:20:09.522Z,25.67
2022-12-17T18:21:42.725Z,25.97
2022-12-17T18:23:17.022Z,28.42
2022-12-17T18:24:49.896Z,27.27
2022-12-17T18:26:24.534Z,28.98
2022-12-17T18:27:57.434Z,28.20
2022-12-17T18:29:32.210Z,31.83
2022-12-17T18:31:13.355Z,29.37
2022-12-17T18:32:46.653Z,31.20
2022-12-17T18:34:21.999Z,32.95
2022-12-17T18:35:54.972Z,31.50
2022-12-17T18:37:27.884Z,31.88
2022-12-17T18:39:04.861Z,31.45
2022-12-17T18:40:37.805Z,31.27
2022-12-17T18:42:28.003Z,29.58
2022-12-17T18:44:01.542Z,27.33
2022-12-17T18:45:38.193Z,27.97
2022-12-17T18:47:11.720Z,28.60
2022-12-17T18:48:43.709Z,27.20
2022-12-17T18:50:16.617Z,26.37
2022-12-17T18:51:51.117Z,28.92
2022-12-17T18:53:25.561Z,29.13
2022-12-17T18:55:00.130Z,26.90
2022-12-17T18:57:00.024Z,29.70
2022-12-17T18:58:26.289Z,25.93
2022-12-17T18:59:59.177Z,26.83
2022-12-17T19:01:35.337Z,28.15
2022-12-17T19:03:09.999Z,26.43
2022-12-17T19:04:43.552Z,27.50
2022-12-17T19:06:17.052Z,28.23
2022-12-17T19:07:49.958Z,27.70
2022-12-17T19:09:25.741Z,26.88
2022-12-17T19:11:06.747Z,25.33
2022-12-17T19:12:39.712Z,26.77
2022-12-17T19:14:12.711Z,28.77
2022-12-17T19:17:18.666Z,23.50
2022-12-17T19:18:53.599Z,24.95
2022-12-17T19:20:26.535Z,25.00
2022-12-17T19:22:00.190Z,26.45
2022-12-17T19:23:33.886Z,25.87
2022-12-17T19:25:07.222Z,27.07
2022-12-17T19:26:41.705Z,27.35
2022-12-17T19:28:14.642Z,27.87
2022-12-17T19:29:49.716Z,29.40
2022-12-17T19:31:24.802Z,32.73
2022-12-17T19:32:57.962Z,31.20
2022-12-17T19:34:35.012Z,31.83
2022-12-17T19:36:10.326Z,32.27
2022-12-17T19:37:43.221Z,31.17
2022-12-17T19:39:18.864Z,30.95
2022-12-17T19:40:52.236Z,33.50
2022-12-17T19:42:33.397Z,32.27
2022-12-17T19:44:13.490Z,31.13
2022-12-17T19:45:46.492Z,32.20
2022-12-17T19:47:19.488Z,32.30
2022-12-17T19:48:53.640Z,33.63
2022-12-17T19:50:30.165Z,33.43
2022-12-17T19:52:03.123Z,35.00
2022-12-17T19:53:37.090Z,37.50
2022-12-17T19:55:10.586Z,35.73
2022-12-17T19:56:44.778Z,35.73
2022-12-17T19:58:19.104Z,35.93
2022-12-17T19:59:51.978Z,35.37
2022-12-17T20:01:27.591Z,37.58
2022-12-17T20:03:00.703Z,36.17
2022-12-17T20:04:33.909Z,36.25
2022-12-17T20:06:07.883Z,34.78
2022-12-17T20:07:41.144Z,35.30
2022-12-17T20:09:14.784Z,33.28
2022-12-17T20:10:47.721Z,32.30
2022-12-17T20:12:20.674Z,31.23
2022-12-17T20:13:55.828Z,30.65
2022-12-17T20:15:28.744Z,31.10
2022-12-17T20:17:02.708Z,30.75
2022-12-17T20:18:35.879Z,29.27
2022-12-17T20:20:10.165Z,28.63
2022-12-17T20:21:43.346Z,29.03
2022-12-17T20:23:16.322Z,27.40
2022-12-17T20:24:49.235Z,28.13
2022-12-17T20:26:23.139Z,27.70
2022-12-17T20:27:56.187Z,28.13
2022-12-17T20:29:30.750Z,30.17
2022-12-17T20:31:04.728Z,29.47
2022-12-17T20:32:38.470Z,30.33
2022-12-17T20:34:15.682Z,28.57
2022-12-17T20:35:48.568Z,32.00
2022-12-17T20:37:21.661Z,31.92
2022-12-17T20:38:54.553Z,31.15
2022-12-17T20:40:27.381Z,31.55
2022-12-17T20:42:00.293Z,31.92
2022-12-17T20:43:33.222Z,32.30
2022-12-17T20:45:08.381Z,31.20
2022-12-17T20:46:41.721Z,29.67
2022-12-17T20:49:47.423Z,24.87
2022-12-17T20:51:22.214Z,27.33
2022-12-17T20:52:55.147Z,25.97
2022-12-17T20:54:28.079Z,25.73
2022-12-17T20:56:01.873Z,26.27
2022-12-17T20:57:34.762Z,27.30
2022-12-17T20:59:09.776Z,26.08
2022-12-17T21:00:44.000Z,26.17
2022-12-17T21:02:17.392Z,27.60
2022-12-17T21:03:52.837Z,26.60
2022-12-17T21:05:26.720Z,25.40
2022-12-17T21:06:59.617Z,25.53
2022-12-17T21:08:32.519Z,27.33
2022-12-17T21:10:06.071Z,25.70
2022-12-17T21:11:40.542Z,26.97
2022-12-17T21:13:31.696Z,23.73
2022-12-17T21:15:05.066Z,24.07
2022-12-17T21:18:12.458Z,22.10
2022-12-17T21:19:45.403Z,23.67
2022-12-17T21:21:20.806Z,24.58
2022-12-17T21:22:53.729Z,22.43
2022-12-17T21:24:26.596Z,23.95
2022-12-17T21:26:03.700Z,24.00
2022-12-17T21:27:41.534Z,25.17
2022-12-17T21:29:15.388Z,25.73
2022-12-17T21:30:48.247Z,25.37
2022-12-17T21:32:22.575Z,25.42
2022-12-17T21:33:57.417Z,28.40
2022-12-17T21:35:31.942Z,28.70
2022-12-17T21:37:04.996Z,29.48
2022-12-17T21:38:43.170Z,30.70
2022-12-17T21:40:16.194Z,31.47
2022-12-17T21:42:03.582Z,28.58
2022-12-17T21:43:36.938Z,29.47
2022-12-17T21:46:43.305Z,24.97
2022-12-17T21:48:18.290Z,27.53
2022-12-17T21:49:51.111Z,27.27
2022-12-17T21:51:24.524Z,27.08
2022-12-17T21:52:57.714Z,26.10
2022-12-17T21:54:30.736Z,28.00
2022-12-17T21:56:04.834Z,25.35
2022-12-17T21:57:38.553Z,24.57
2022-12-17T21:59:12.334Z,26.37
2022-12-17T22:00:45.180Z,26.20
2022-12-17T22:04:16.592Z,24.03
2022-12-17T22:05:49.566Z,25.93
2022-12-17T22:07:24.382Z,26.02
2022-12-17T22:09:02.911Z,27.10
2022-12-17T22:10:52.365Z,25.60
2022-12-17T22:12:42.836Z,26.67
2022-12-17T22:14:20.885Z,26.17
2022-12-17T22:15:54.552Z,26.13
2022-12-17T22:19:01.154Z,23.87
2022-12-17T22:20:35.554Z,24.90
2022-12-17T22:22:09.738Z,24.77
2022-12-17T22:23:43.174Z,24.83
2022-12-17T22:25:17.352Z,24.73
2022-12-17T22:26:50.705Z,24.73
2022-12-17T22:28:23.751Z,24.88
2022-12-17T22:30:15.800Z,25.07
2022-12-17T22:32:06.120Z,25.53
2022-12-17T22:34:29.116Z,26.40
2022-12-17T22:36:48.690Z,25.67
2022-12-17T22:40:42.769Z,27.37
2022-12-17T22:41:36.417Z,25.83
2022-12-17T22:44:17.689Z,26.77
2022-12-17T22:44:42.606Z,24.10
2022-12-17T22:45:24.851Z,24.13
2022-12-17T22:46:58.145Z,23.40
2022-12-17T22:48:31.995Z,24.05
2022-12-17T22:50:05.458Z,23.60
2022-12-17T22:51:41.350Z,24.23
2022-12-17T22:53:15.257Z,25.33
2022-12-17T22:56:46.683Z,22.42
2022-12-17T22:58:15.725Z,25.33
2022-12-17T22:59:48.619Z,22.88